Time;durP1;ratioP1;P1;durP2;ratioP2;P2;SDS_P1;SDS_P2;PMS_P1;PMS_P2;Temp;Humidity;BMP_temperature;BMP_pressure;BME280_temperature;BME280_humidity;BME280_pressure;Samples;Min_cycle;Max_cycle;Signal;HPM_P1;HPM_P2
2022/04/24 00:00:17;;;;;;;10.77;9.25;;;10.00;99.90;;;;;;5025245;28;20046;-54
2022/04/24 00:02:44;;;;;;;10.30;8.77;;;10.00;99.90;;;;;;5006784;28;21339;-55
2022/04/24 00:05:10;;;;;;;10.25;9.13;;;10.00;99.90;;;;;;5006022;28;20062;-55
2022/04/24 00:07:37;;;;;;;9.52;8.63;;;9.90;99.90;;;;;;5008588;28;20595;-54
2022/04/24 00:10:04;;;;;;;10.77;9.60;;;9.90;99.90;;;;;;4998907;28;20128;-53
2022/04/24 00:12:30;;;;;;;10.20;9.07;;;9.90;99.90;;;;;;5006311;28;20068;-55
2022/04/24 00:14:56;;;;;;;11.38;9.25;;;9.80;99.90;;;;;;5004565;28;20048;-53
2022/04/24 00:17:22;;;;;;;9.73;8.73;;;9.80;99.90;;;;;;5022746;28;20088;-55
2022/04/24 00:19:49;;;;;;;10.63;9.50;;;9.80;99.90;;;;;;5023223;28;20108;-55
2022/04/24 00:22:15;;;;;;;13.10;8.88;;;9.80;99.90;;;;;;5016155;28;20084;-53
2022/04/24 00:24:41;;;;;;;9.73;8.73;;;9.80;99.90;;;;;;5006568;28;20053;-53
2022/04/24 00:27:08;;;;;;;10.35;9.05;;;9.80;99.90;;;;;;5023120;28;20049;-55
2022/04/24 00:29:35;;;;;;;10.65;7.60;;;9.70;99.90;;;;;;5021330;28;20135;-54
2022/04/24 00:32:01;;;;;;;9.18;8.27;;;9.70;99.90;;;;;;5024567;28;20041;-54
2022/04/24 00:34:27;;;;;;;11.10;9.05;;;9.70;99.90;;;;;;5024367;28;20088;-55
2022/04/24 00:36:53;;;;;;;10.45;8.82;;;9.70;99.90;;;;;;5024887;28;20512;-54
2022/04/24 00:39:19;;;;;;;10.02;8.00;;;9.70;99.90;;;;;;5005027;28;20146;-54
2022/04/24 00:41:47;;;;;;;10.82;8.98;;;9.60;99.90;;;;;;5017395;28;20099;-55
2022/04/24 00:44:14;;;;;;;9.90;8.23;;;9.50;99.90;;;;;;5016176;28;20107;-54
2022/04/24 00:47:21;;;;;;;9.48;8.38;;;9.60;99.90;;;;;;4984852;28;20104;-56
2022/04/24 00:49:48;;;;;;;12.27;8.57;;;9.50;99.90;;;;;;5001363;28;20386;-55
2022/04/24 00:52:14;;;;;;;11.02;8.75;;;9.50;99.90;;;;;;4994870;28;20057;-55
2022/04/24 00:54:41;;;;;;;11.23;9.60;;;9.50;99.90;;;;;;5004843;28;20053;-55
2022/04/24 00:57:13;;;;;;;10.88;9.02;;;9.40;99.90;;;;;;5023472;28;20053;-55
2022/04/24 00:59:39;;;;;;;9.95;8.75;;;9.40;99.90;;;;;;5024092;28;20060;-56
2022/04/24 01:02:07;;;;;;;9.63;8.50;;;9.40;99.90;;;;;;5023937;28;20587;-55
2022/04/24 01:04:37;;;;;;;9.52;8.63;;;9.30;99.90;;;;;;5023729;28;20049;-55
2022/04/24 01:07:04;;;;;;;9.68;8.73;;;9.30;99.90;;;;;;5022064;28;20064;-55
2022/04/24 01:09:33;;;;;;;9.88;8.70;;;9.30;99.90;;;;;;4983081;28;20049;-55
2022/04/24 01:11:59;;;;;;;9.93;8.80;;;9.20;99.90;;;;;;5020741;28;20537;-55
2022/04/24 01:14:27;;;;;;;11.15;8.35;;;9.20;99.90;;;;;;5021868;28;20115;-55
2022/04/24 01:16:54;;;;;;;10.18;8.10;;;9.20;99.90;;;;;;5016875;28;20068;-55
2022/04/24 01:19:21;;;;;;;9.52;8.52;;;9.10;99.90;;;;;;5020653;28;20049;-55
2022/04/24 01:21:48;;;;;;;10.00;8.93;;;9.10;99.90;;;;;;5013001;28;20194;-56
2022/04/24 01:24:16;;;;;;;10.68;9.30;;;9.10;99.90;;;;;;5020870;28;20053;-56
2022/04/24 01:26:42;;;;;;;10.10;8.60;;;9.10;99.90;;;;;;5019421;28;20053;-55
2022/04/24 01:29:11;;;;;;;10.98;8.57;;;9.10;99.90;;;;;;5007817;28;20041;-55
2022/04/24 01:31:38;;;;;;;10.65;8.65;;;9.10;99.90;;;;;;5020726;28;20798;-55
2022/04/24 01:34:05;;;;;;;9.00;8.10;;;9.10;99.90;;;;;;5020433;28;20080;-55
2022/04/24 01:36:31;;;;;;;10.32;7.95;;;9.00;99.90;;;;;;5013968;28;20473;-54
2022/04/24 01:38:57;;;;;;;11.63;9.30;;;8.90;99.90;;;;;;5021019;28;20655;-54
2022/04/24 01:41:23;;;;;;;12.18;9.30;;;8.90;99.90;;;;;;5021887;28;20532;-54
2022/04/24 01:43:49;;;;;;;10.55;8.95;;;8.90;99.90;;;;;;5020945;28;20432;-55
2022/04/24 01:46:16;;;;;;;9.48;8.32;;;8.90;99.90;;;;;;5016580;28;20171;-54
2022/04/24 01:48:42;;;;;;;11.85;9.25;;;8.80;99.90;;;;;;4995935;28;20132;-56
2022/04/24 01:51:09;;;;;;;10.68;8.95;;;8.80;99.90;;;;;;5020422;28;20060;-56
2022/04/24 01:53:36;;;;;;;10.50;9.40;;;8.70;99.90;;;;;;5017753;28;20045;-56
2022/04/24 01:56:04;;;;;;;10.30;9.13;;;8.70;99.90;;;;;;5030471;28;20061;-56
2022/04/24 01:58:31;;;;;;;10.30;9.02;;;8.70;99.90;;;;;;5011340;28;20045;-55
2022/04/24 02:00:57;;;;;;;11.55;9.57;;;8.60;99.90;;;;;;5021162;28;20052;-56
2022/04/24 02:03:25;;;;;;;10.18;8.95;;;8.60;99.90;;;;;;5020774;28;20508;-56
2022/04/24 02:05:51;;;;;;;11.20;8.63;;;8.50;99.90;;;;;;5022263;28;20061;-56
2022/04/24 02:08:17;;;;;;;11.10;8.73;;;8.50;99.90;;;;;;5021743;28;20045;-55
2022/04/24 02:10:43;;;;;;;10.48;9.38;;;8.50;99.90;;;;;;5016050;28;20128;-55
2022/04/24 02:13:10;;;;;;;9.73;8.50;;;8.50;99.90;;;;;;5021038;28;20313;-55
2022/04/24 02:15:36;;;;;;;10.18;8.90;;;8.40;99.90;;;;;;5021095;28;20055;-56
2022/04/24 02:18:02;;;;;;;9.55;8.52;;;8.40;99.90;;;;;;5022078;28;20056;-56
2022/04/24 02:20:29;;;;;;;9.98;8.90;;;8.40;99.90;;;;;;5021173;28;20049;-55
2022/04/24 02:22:57;;;;;;;10.00;8.50;;;8.40;99.90;;;;;;5020509;28;20053;-56
2022/04/24 02:25:27;;;;;;;10.52;8.55;;;8.30;99.90;;;;;;5022331;28;20124;-55
2022/04/24 02:27:54;;;;;;;9.38;8.25;;;8.30;99.90;;;;;;5002698;28;20489;-55
2022/04/24 02:30:26;;;;;;;11.25;9.35;;;8.30;99.90;;;;;;5018952;28;20192;-54
2022/04/24 02:32:52;;;;;;;10.13;9.10;;;8.30;99.90;;;;;;5018133;28;20154;-53
2022/04/24 02:35:19;;;;;;;10.15;8.95;;;8.20;99.90;;;;;;5020034;28;20299;-54
2022/04/24 02:37:45;;;;;;;9.52;8.52;;;8.20;99.90;;;;;;5021229;28;20052;-55
2022/04/24 02:40:11;;;;;;;11.00;9.43;;;8.20;99.90;;;;;;5019111;28;20053;-54
2022/04/24 02:42:39;;;;;;;10.20;9.20;;;8.10;99.90;;;;;;4985515;28;22054;-52
2022/04/24 02:45:07;;;;;;;12.27;9.20;;;8.10;99.90;;;;;;5022243;28;20149;-53
2022/04/24 02:47:33;;;;;;;11.70;9.63;;;8.10;99.90;;;;;;5021497;28;20049;-54
2022/04/24 02:50:00;;;;;;;14.02;9.77;;;8.00;99.90;;;;;;5028240;28;20040;-56
2022/04/24 02:52:26;;;;;;;11.15;10.05;;;8.00;99.90;;;;;;5021256;28;20132;-54
2022/04/24 02:54:53;;;;;;;11.23;8.68;;;8.00;99.90;;;;;;5021357;28;20045;-55
2022/04/24 02:57:20;;;;;;;11.20;9.73;;;7.90;99.90;;;;;;5020613;28;20523;-56
2022/04/24 02:59:48;;;;;;;11.68;8.55;;;7.90;99.90;;;;;;4986007;28;20528;-55
2022/04/24 03:02:15;;;;;;;10.05;9.05;;;7.90;99.90;;;;;;5005288;28;20068;-56
2022/04/24 03:04:41;;;;;;;11.15;9.68;;;7.80;99.90;;;;;;5006441;28;20064;-55
2022/04/24 03:07:07;;;;;;;9.90;8.65;;;7.80;99.90;;;;;;5025783;28;20122;-56
2022/04/24 03:09:34;;;;;;;9.95;9.05;;;7.80;99.90;;;;;;5025368;28;20156;-54
2022/04/24 03:12:00;;;;;;;12.13;9.48;;;7.80;99.90;;;;;;5024038;28;20444;-55
2022/04/24 03:14:26;;;;;;;10.00;9.00;;;7.80;99.90;;;;;;5006799;28;20048;-54
2022/04/24 03:16:52;;;;;;;11.43;9.55;;;7.70;99.90;;;;;;5007289;28;20053;-55
2022/04/24 03:19:18;;;;;;;11.38;9.73;;;7.70;99.90;;;;;;4989773;28;20045;-55
2022/04/24 03:21:44;;;;;;;13.48;10.25;;;7.70;99.90;;;;;;5023814;28;20050;-54
2022/04/24 03:24:10;;;;;;;11.85;10.05;;;7.70;99.90;;;;;;5023938;28;20453;-53
2022/04/24 03:26:36;;;;;;;10.82;9.75;;;7.60;99.90;;;;;;5006861;28;20049;-53
2022/04/24 03:29:03;;;;;;;10.35;9.25;;;7.60;99.90;;;;;;5005976;28;20045;-55
2022/04/24 03:31:29;;;;;;;10.73;9.38;;;7.60;99.90;;;;;;5021752;28;20955;-53
2022/04/24 03:33:55;;;;;;;10.75;9.65;;;7.60;99.90;;;;;;5025618;28;20891;-55
2022/04/24 03:36:21;;;;;;;11.02;9.55;;;7.50;99.90;;;;;;5022655;28;20124;-55
2022/04/24 03:38:47;;;;;;;10.95;9.80;;;7.50;99.90;;;;;;5023758;28;20049;-52
2022/04/24 03:41:13;;;;;;;9.93;8.93;;;7.50;99.90;;;;;;5023150;28;20850;-53
2022/04/24 03:43:40;;;;;;;11.15;9.70;;;7.50;99.90;;;;;;5006425;28;20049;-55
2022/04/24 03:46:06;;;;;;;10.48;9.38;;;7.50;99.90;;;;;;5024743;28;20057;-53
2022/04/24 03:48:32;;;;;;;10.80;9.68;;;7.40;99.90;;;;;;5004608;28;20054;-54
2022/04/24 03:50:58;;;;;;;10.35;9.10;;;7.40;99.90;;;;;;5018276;28;20443;-54
2022/04/24 03:53:24;;;;;;;10.95;9.00;;;7.40;99.90;;;;;;5022550;28;20057;-55
2022/04/24 03:55:50;;;;;;;11.32;9.95;;;7.40;99.90;;;;;;5024264;28;20056;-55
2022/04/24 03:58:16;;;;;;;11.43;9.30;;;7.40;99.90;;;;;;5022246;28;20144;-55
2022/04/24 04:00:42;;;;;;;10.75;9.35;;;7.30;99.90;;;;;;5024779;28;20088;-55
2022/04/24 04:03:08;;;;;;;10.35;9.35;;;7.30;99.90;;;;;;5005223;28;20060;-55
2022/04/24 04:05:38;;;;;;;13.57;9.98;;;7.30;99.90;;;;;;4996451;28;20054;-55
2022/04/24 04:08:04;;;;;;;12.15;9.90;;;7.30;99.90;;;;;;5016858;28;20053;-54
2022/04/24 04:10:31;;;;;;;11.88;10.38;;;7.30;99.90;;;;;;5006802;28;20455;-54
2022/04/24 04:12:57;;;;;;;11.07;8.90;;;7.30;99.90;;;;;;5022345;28;20037;-54
2022/04/24 04:15:24;;;;;;;12.40;9.98;;;7.30;99.90;;;;;;5020582;28;20084;-52
2022/04/24 04:17:50;;;;;;;11.18;9.55;;;7.20;99.90;;;;;;5022103;28;20045;-56
2022/04/24 04:20:17;;;;;;;11.38;9.75;;;7.20;99.90;;;;;;5023649;28;20049;-54
2022/04/24 04:22:51;;;;;;;10.60;9.45;;;7.20;99.90;;;;;;5024277;28;20076;-54
2022/04/24 04:25:19;;;;;;;11.40;10.20;;;7.20;99.90;;;;;;5018149;28;20053;-55
2022/04/24 04:27:45;;;;;;;11.27;10.02;;;7.10;99.90;;;;;;5019999;28;20457;-55
2022/04/24 04:30:12;;;;;;;12.00;9.68;;;7.10;99.90;;;;;;5002370;28;20103;-53
2022/04/24 04:32:38;;;;;;;11.57;9.88;;;7.20;99.90;;;;;;5005711;28;20045;-55
2022/04/24 04:35:05;;;;;;;11.82;10.00;;;7.20;99.90;;;;;;5003564;28;20041;-56
2022/04/24 04:37:32;;;;;;;11.82;9.60;;;7.10;99.90;;;;;;5024287;28;20053;-52
2022/04/24 04:39:58;;;;;;;11.43;9.18;;;7.10;99.90;;;;;;5020496;28;20575;-54
2022/04/24 04:42:24;;;;;;;10.75;9.65;;;7.10;99.90;;;;;;5006547;28;20132;-54
2022/04/24 04:44:50;;;;;;;12.95;9.40;;;7.10;99.90;;;;;;5020609;28;20703;-54
2022/04/24 04:47:16;;;;;;;11.27;9.57;;;7.10;99.90;;;;;;4988146;28;20049;-56
2022/04/24 04:49:42;;;;;;;10.88;9.70;;;7.10;99.90;;;;;;5020214;28;20045;-56
2022/04/24 04:52:08;;;;;;;11.40;9.40;;;7.10;99.90;;;;;;5022333;28;20073;-56
2022/04/24 04:54:34;;;;;;;12.80;10.50;;;7.10;99.90;;;;;;4987542;28;20052;-53
2022/04/24 04:57:01;;;;;;;13.55;9.88;;;7.20;99.90;;;;;;5014636;28;20049;-54
2022/04/24 04:59:27;;;;;;;10.73;9.63;;;7.20;99.90;;;;;;5003992;28;20061;-56
2022/04/24 05:01:53;;;;;;;12.52;9.55;;;7.20;99.90;;;;;;5024225;28;20378;-55
2022/04/24 05:04:19;;;;;;;10.95;9.57;;;7.20;99.90;;;;;;5004008;28;20046;-53
2022/04/24 05:06:45;;;;;;;12.43;9.85;;;7.30;99.90;;;;;;5023523;28;20637;-54
2022/04/24 05:09:11;;;;;;;11.52;9.48;;;7.40;99.90;;;;;;5021777;28;20767;-54
2022/04/24 05:11:39;;;;;;;10.52;9.25;;;7.40;99.90;;;;;;5020082;28;20045;-54
2022/04/24 05:14:06;;;;;;;11.02;9.05;;;7.50;99.90;;;;;;5022910;28;20045;-54
2022/04/24 05:16:32;;;;;;;12.23;9.85;;;7.60;99.90;;;;;;5016217;28;20054;-55
2022/04/24 05:18:58;;;;;;;10.55;8.25;;;7.60;99.90;;;;;;5005220;28;20057;-56
2022/04/24 05:21:25;;;;;;;12.88;9.10;;;7.60;99.90;;;;;;5019696;28;20053;-53
2022/04/24 05:23:52;;;;;;;11.35;8.60;;;7.80;99.90;;;;;;5018346;28;20049;-54
2022/04/24 05:26:19;;;;;;;11.02;9.02;;;7.90;99.90;;;;;;5003718;28;20100;-52
2022/04/24 05:28:45;;;;;;;10.45;8.85;;;7.90;99.90;;;;;;5021114;28;20050;-54
2022/04/24 05:31:11;;;;;;;9.50;8.50;;;8.00;99.90;;;;;;5018796;28;20052;-54
2022/04/24 05:33:37;;;;;;;9.50;8.50;;;8.10;99.90;;;;;;5016716;28;20189;-55
2022/04/24 05:36:07;;;;;;;10.00;8.73;;;8.10;99.90;;;;;;5021966;28;20057;-56
2022/04/24 05:38:34;;;;;;;10.27;8.75;;;8.20;99.90;;;;;;5001556;28;20107;-53
2022/04/24 05:41:00;;;;;;;10.70;8.50;;;8.20;99.90;;;;;;5019524;28;20055;-55
2022/04/24 05:43:26;;;;;;;10.10;8.45;;;8.20;99.90;;;;;;5019310;28;20084;-56
2022/04/24 05:45:52;;;;;;;11.15;9.23;;;8.20;99.90;;;;;;5005767;28;20187;-54
2022/04/24 05:48:18;;;;;;;12.75;8.68;;;8.20;99.90;;;;;;5020250;28;20128;-54
2022/04/24 05:50:45;;;;;;;10.75;8.88;;;8.10;99.90;;;;;;5020034;28;20049;-54
2022/04/24 05:53:11;;;;;;;10.48;9.20;;;8.10;99.90;;;;;;5020964;28;20120;-54
2022/04/24 05:55:37;;;;;;;12.27;8.73;;;8.20;99.90;;;;;;5022883;28;20041;-54
2022/04/24 05:58:04;;;;;;;10.90;9.13;;;8.30;99.90;;;;;;5021725;28;20164;-54
2022/04/24 06:00:30;;;;;;;10.52;8.13;;;8.30;99.90;;;;;;5019062;28;20081;-55
2022/04/24 06:02:56;;;;;;;11.18;8.65;;;8.40;99.90;;;;;;5015935;28;20078;-54
2022/04/24 06:05:23;;;;;;;11.57;10.40;;;8.50;99.90;;;;;;4993535;28;20049;-56
2022/04/24 06:07:50;;;;;;;12.10;10.23;;;8.60;99.90;;;;;;4997129;28;20049;-56
2022/04/24 06:10:16;;;;;;;18.00;15.13;;;8.70;99.90;;;;;;4993172;28;20041;-57
2022/04/24 06:12:50;;;;;;;11.23;10.02;;;8.80;99.90;;;;;;5011675;28;20045;-57
2022/04/24 06:15:20;;;;;;;10.65;9.45;;;8.90;99.90;;;;;;5019648;28;20050;-58
2022/04/24 06:17:47;;;;;;;11.02;9.85;;;8.90;99.90;;;;;;4996962;28;20052;-57
2022/04/24 06:20:14;;;;;;;12.57;10.40;;;9.00;99.90;;;;;;5022583;28;20799;-56
2022/04/24 06:22:48;;;;;;;13.65;12.20;;;9.10;99.90;;;;;;5018347;28;20135;-57
2022/04/24 06:25:19;;;;;;;14.05;12.05;;;9.20;99.90;;;;;;5019253;28;20517;-57
2022/04/24 06:27:46;;;;;;;13.50;11.57;;;9.20;99.90;;;;;;5018797;28;20041;-57
2022/04/24 06:30:13;;;;;;;11.13;10.02;;;9.40;99.90;;;;;;5020881;28;20042;-57
2022/04/24 06:32:41;;;;;;;11.48;9.98;;;9.60;99.90;;;;;;5020013;28;20049;-57
2022/04/24 06:35:09;;;;;;;13.63;12.23;;;9.60;99.90;;;;;;4982014;28;20120;-56
2022/04/24 06:37:39;;;;;;;14.65;12.25;;;9.90;99.90;;;;;;5021787;28;20057;-57
2022/04/24 06:40:06;;;;;;;16.38;14.30;;;10.20;99.90;;;;;;5022546;28;20143;-57
2022/04/24 06:42:33;;;;;;;12.63;10.05;;;10.40;99.90;;;;;;5014510;28;20057;-57
2022/04/24 06:45:00;;;;;;;18.02;14.85;;;10.50;99.90;;;;;;5016246;28;20051;-57
2022/04/24 06:47:27;;;;;;;14.23;11.68;;;10.80;99.90;;;;;;5013101;28;20054;-54
2022/04/24 06:49:56;;;;;;;13.55;12.13;;;11.10;99.90;;;;;;4998236;28;20060;-56
2022/04/24 06:52:22;;;;;;;11.00;9.45;;;11.40;99.90;;;;;;5020914;28;20052;-56
2022/04/24 06:54:49;;;;;;;11.38;8.18;;;11.60;99.90;;;;;;5014747;28;20052;-55
2022/04/24 06:57:15;;;;;;;12.95;10.50;;;11.60;99.90;;;;;;4989262;28;20129;-57
2022/04/24 06:59:41;;;;;;;16.65;14.35;;;11.90;99.90;;;;;;5021211;28;20519;-57
2022/04/24 07:02:07;;;;;;;11.23;8.65;;;12.00;99.90;;;;;;5017803;28;20060;-56
2022/04/24 07:04:33;;;;;;;11.82;9.35;;;12.00;99.90;;;;;;5012346;28;20067;-56
2022/04/24 07:06:59;;;;;;;12.23;8.95;;;12.20;99.90;;;;;;5012587;28;20120;-56
2022/04/24 07:09:27;;;;;;;12.70;10.23;;;12.20;99.90;;;;;;5012898;28;20559;-56
2022/04/24 07:11:53;;;;;;;13.30;9.93;;;12.50;99.90;;;;;;5015890;28;20045;-56
2022/04/24 07:14:19;;;;;;;10.90;7.90;;;12.90;99.90;;;;;;5016787;28;20141;-56
2022/04/24 07:16:46;;;;;;;9.00;8.05;;;13.30;99.90;;;;;;5014261;28;20052;-58
2022/04/24 07:19:12;;;;;;;9.50;7.82;;;13.20;99.90;;;;;;5022543;28;20663;-56
2022/04/24 07:21:38;;;;;;;11.65;10.20;;;13.30;99.90;;;;;;5020784;28;20128;-57
2022/04/24 07:24:05;;;;;;;11.70;10.07;;;13.60;99.90;;;;;;5019566;28;20117;-56
2022/04/24 07:26:31;;;;;;;10.63;8.48;;;13.50;99.90;;;;;;5010669;28;20574;-57
2022/04/24 07:28:58;;;;;;;13.13;11.52;;;14.00;99.90;;;;;;5024194;28;20681;-57
2022/04/24 07:31:24;;;;;;;11.73;9.70;;;14.10;99.90;;;;;;5019096;28;20045;-57
2022/04/24 07:33:52;;;;;;;11.43;10.23;;;14.30;99.90;;;;;;5018777;28;20099;-56
2022/04/24 07:36:18;;;;;;;10.48;9.38;;;14.40;99.90;;;;;;5019660;28;20626;-57
2022/04/24 07:38:45;;;;;;;11.68;9.40;;;14.50;99.90;;;;;;5025408;28;20051;-56
2022/04/24 07:41:11;;;;;;;9.50;7.68;;;14.70;99.90;;;;;;5024534;28;20053;-56
2022/04/24 07:43:37;;;;;;;10.55;6.47;;;14.80;99.90;;;;;;5024727;28;20392;-57
2022/04/24 07:46:03;;;;;;;8.38;6.10;;;15.00;97.40;;;;;;5023060;28;20042;-54
2022/04/24 07:48:29;;;;;;;8.25;6.57;;;14.90;91.40;;;;;;5022002;28;20052;-56
2022/04/24 07:50:55;;;;;;;10.50;9.00;;;15.10;79.80;;;;;;5006680;28;20115;-57
2022/04/24 07:53:22;;;;;;;10.98;9.10;;;15.20;75.90;;;;;;4990831;28;20890;-57
2022/04/24 07:55:49;;;;;;;7.85;5.70;;;15.10;72.70;;;;;;5014665;28;20152;-58
2022/04/24 07:58:16;;;;;;;7.10;5.60;;;15.20;70.30;;;;;;4975612;28;20046;-57
2022/04/24 08:00:43;;;;;;;7.22;5.43;;;15.60;67.00;;;;;;5023769;28;20092;-57
2022/04/24 08:03:10;;;;;;;8.07;5.25;;;15.80;63.40;;;;;;5020239;28;20080;-57
2022/04/24 08:05:39;;;;;;;7.55;5.75;;;15.70;67.30;;;;;;5015222;28;20061;-56
2022/04/24 08:08:09;;;;;;;8.30;6.28;;;15.80;64.40;;;;;;5018721;28;20133;-57
2022/04/24 08:10:38;;;;;;;5.67;4.77;;;16.20;61.00;;;;;;5024963;28;20786;-57
2022/04/24 08:13:05;;;;;;;8.10;6.63;;;16.30;60.20;;;;;;5023622;28;20308;-57
2022/04/24 08:15:35;;;;;;;9.60;6.72;;;16.40;59.10;;;;;;4988936;28;20049;-57
2022/04/24 08:18:03;;;;;;;6.72;4.90;;;16.50;58.30;;;;;;5005976;28;20073;-56
2022/04/24 08:20:29;;;;;;;8.32;4.38;;;16.70;57.50;;;;;;5023241;28;20397;-55
2022/04/24 08:22:59;;;;;;;7.55;3.80;;;16.80;55.40;;;;;;5007563;28;20060;-56
2022/04/24 08:25:26;;;;;;;9.73;5.85;;;16.80;55.10;;;;;;5015396;28;20532;-55
2022/04/24 08:27:54;;;;;;;8.10;6.32;;;17.40;54.90;;;;;;4999066;28;20080;-56
2022/04/24 08:30:23;;;;;;;6.70;5.88;;;17.50;53.40;;;;;;5023595;28;20512;-56
2022/04/24 08:32:50;;;;;;;7.13;5.40;;;17.50;53.00;;;;;;5007512;28;20047;-57
2022/04/24 08:35:18;;;;;;;4.60;3.15;;;17.50;52.50;;;;;;5015334;28;20057;-56
2022/04/24 08:37:45;;;;;;;5.47;3.15;;;17.60;51.00;;;;;;5025216;28;20057;-57
2022/04/24 08:40:13;;;;;;;8.20;4.10;;;18.00;51.40;;;;;;4995993;28;20077;-56
2022/04/24 08:42:40;;;;;;;5.38;3.63;;;18.10;50.30;;;;;;5018168;28;20049;-56
2022/04/24 08:45:22;;;;;;;6.50;5.15;;;18.30;50.90;;;;;;5019936;28;20840;-56
2022/04/24 08:47:49;;;;;;;;;;;18.50;48.40;;;;;;5017279;28;20052;-57
2022/04/24 08:50:15;;;;;;;7.38;5.82;;;18.40;45.70;;;;;;5016990;28;19978;-57
2022/04/24 08:52:44;;;;;;;4.07;2.83;;;18.50;46.90;;;;;;5021948;28;20141;-57
2022/04/24 08:55:10;;;;;;;6.90;3.20;;;18.60;45.90;;;;;;5017145;28;20049;-57
2022/04/24 08:57:37;;;;;;;5.57;4.22;;;18.60;44.70;;;;;;5023741;28;20053;-56
2022/04/24 09:00:07;;;;;;;10.60;8.70;;;18.70;45.30;;;;;;5023778;28;20524;-56
2022/04/24 09:02:34;;;;;;;4.78;2.67;;;18.80;44.40;;;;;;5025023;28;20049;-56
2022/04/24 09:05:00;;;;;;;6.82;4.72;;;19.00;43.80;;;;;;5021515;28;20064;-56
2022/04/24 09:07:34;;;;;;;6.72;5.00;;;19.00;44.20;;;;;;5002197;28;20116;-56
2022/04/24 09:10:04;;;;;;;8.25;5.82;;;18.80;42.30;;;;;;5020775;28;20099;-56
2022/04/24 09:12:31;;;;;;;9.68;6.20;;;19.10;42.80;;;;;;5023854;28;20128;-56
2022/04/24 09:14:58;;;;;;;9.95;6.45;;;19.10;43.40;;;;;;4987942;28;20053;-56
2022/04/24 09:17:32;;;;;;;7.38;4.78;;;19.30;42.90;;;;;;5022973;28;20684;-58
2022/04/24 09:20:00;;;;;;;6.28;4.63;;;19.50;44.30;;;;;;5022706;28;20068;-57
2022/04/24 09:22:27;;;;;;;4.20;3.08;;;19.60;43.80;;;;;;5021728;28;20089;-57
2022/04/24 09:24:59;;;;;;;6.25;4.88;;;19.70;44.70;;;;;;5022238;28;20049;-57
2022/04/24 09:27:26;;;;;;;7.60;4.65;;;20.00;42.40;;;;;;5023780;28;20492;-57
2022/04/24 09:30:19;;;;;;;7.13;4.43;;;20.00;42.30;;;;;;5020531;28;20052;-57
2022/04/24 09:32:50;;;;;;;6.63;3.85;;;20.20;42.50;;;;;;5017494;28;20132;-57
2022/04/24 09:35:30;;;;;;;;;;;19.90;42.10;;;;;;5023131;28;20056;-56
2022/04/24 09:38:09;;;;;;;8.85;6.18;;;20.20;43.00;;;;;;5020380;28;19960;-57
2022/04/24 09:40:49;;;;;;;9.75;6.60;;;20.30;42.40;;;;;;5022255;28;20057;-57
2022/04/24 09:43:17;;;;;;;9.25;6.63;;;20.50;41.90;;;;;;5018086;28;20081;-58
2022/04/24 09:45:48;;;;;;;8.93;6.20;;;20.80;42.10;;;;;;5017981;28;20314;-57
2022/04/24 09:48:18;;;;;;;9.65;7.97;;;21.00;41.10;;;;;;5023759;28;20179;-58
2022/04/24 09:50:44;;;;;;;5.70;4.43;;;21.20;40.60;;;;;;5023742;28;20060;-57
2022/04/24 09:53:15;;;;;;;11.00;6.70;;;21.40;41.10;;;;;;5023801;28;20809;-57
2022/04/24 09:55:43;;;;;;;5.80;4.13;;;20.80;39.60;;;;;;5012195;28;20058;-57
2022/04/24 09:58:21;;;;;;;4.53;3.22;;;21.20;39.80;;;;;;5023086;28;20069;-63
2022/04/24 10:00:50;;;;;;;8.50;7.35;;;21.20;38.90;;;;;;5023064;28;20042;-58
2022/04/24 10:03:18;;;;;;;6.00;3.55;;;21.00;38.70;;;;;;5023132;28;20049;-57
2022/04/24 10:05:47;;;;;;;9.20;6.93;;;21.00;39.30;;;;;;5018358;28;20061;-56
2022/04/24 10:08:15;;;;;;;10.20;7.85;;;20.80;39.40;;;;;;5017602;28;20072;-57
2022/04/24 10:10:41;;;;;;;10.63;7.93;;;21.30;40.30;;;;;;5008741;28;20049;-57
2022/04/24 10:13:11;;;;;;;6.47;5.10;;;21.50;39.10;;;;;;5019925;28;20052;-57
2022/04/24 10:15:53;;;;;;;6.60;4.78;;;21.90;38.60;;;;;;5018623;28;20053;-57
2022/04/24 10:19:04;;;;;;;9.43;6.55;;;21.60;38.80;;;;;;5020770;28;20048;-57
2022/04/24 10:21:36;;;;;;;6.57;4.50;;;21.90;38.60;;;;;;5004765;28;20488;-57
2022/04/24 10:24:11;;;;;;;5.15;4.35;;;22.00;38.10;;;;;;5020844;28;20145;-57
2022/04/24 10:26:38;;;;;;;7.18;4.30;;;22.50;37.70;;;;;;5020081;28;20505;-57
2022/04/24 10:29:09;;;;;;;5.30;3.58;;;22.10;37.30;;;;;;5019805;28;20053;-57
2022/04/24 10:31:46;;;;;;;4.82;3.10;;;22.20;36.20;;;;;;5019680;28;20501;-57
2022/04/24 10:34:13;;;;;;;4.82;3.67;;;22.20;36.80;;;;;;5016173;28;20103;-57
2022/04/24 10:36:59;;;;;;;6.90;3.55;;;21.70;36.40;;;;;;5018589;28;20045;-57
2022/04/24 10:39:33;;;;;;;3.42;2.60;;;21.80;36.30;;;;;;5018958;28;20068;-57
2022/04/24 10:42:12;;;;;;;5.85;3.58;;;21.70;36.40;;;;;;5020781;28;20057;-57
2022/04/24 10:44:52;;;;;;;5.22;1.80;;;22.20;36.50;;;;;;5001310;28;20151;-57
2022/04/24 10:47:18;;;;;;;5.55;3.67;;;21.90;34.90;;;;;;5014055;28;20053;-57
2022/04/24 10:49:45;;;;;;;17.45;15.57;;;22.40;35.80;;;;;;4986374;28;20052;-58
2022/04/24 10:52:12;;;;;;;5.55;3.50;;;22.50;36.60;;;;;;5001055;28;20049;-57
2022/04/24 10:54:39;;;;;;;7.05;5.63;;;22.60;36.30;;;;;;5016490;28;20103;-60
2022/04/24 10:57:20;;;;;;;27.27;24.67;;;22.60;35.20;;;;;;5017039;28;20058;-60
2022/04/24 10:59:52;;;;;;;16.30;14.73;;;22.60;35.60;;;;;;5005590;28;20144;-59
2022/04/24 11:02:24;;;;;;;8.48;6.70;;;22.20;35.20;;;;;;5020932;28;20056;-60
2022/04/24 11:05:09;;;;;;;;;;;22.60;36.70;;;;;;5015763;28;20535;-59
2022/04/24 11:07:36;;;;;;;3.45;2.58;;;22.30;35.20;;;;;;5004791;28;19995;-59
2022/04/24 11:10:06;;;;;;;5.57;3.83;;;22.40;33.90;;;;;;5022084;28;20037;-59
2022/04/24 11:12:33;;;;;;;6.05;2.85;;;22.50;35.30;;;;;;5014875;28;20121;-59
2022/04/24 11:15:08;;;;;;;5.32;2.22;;;22.50;35.70;;;;;;5012854;28;20052;-59
2022/04/24 11:17:35;;;;;;;4.47;2.20;;;22.80;36.00;;;;;;5015038;28;20700;-58
2022/04/24 11:20:09;;;;;;;5.95;2.40;;;23.20;36.10;;;;;;4980449;28;20056;-59
2022/04/24 11:22:48;;;;;;;3.33;1.95;;;22.90;34.40;;;;;;5000518;28;20602;-58
2022/04/24 11:25:17;;;;;;;3.95;2.33;;;22.40;33.20;;;;;;5018653;28;20527;-56
2022/04/24 11:27:45;;;;;;;3.58;2.15;;;21.70;35.30;;;;;;5016965;28;20056;-57
2022/04/24 11:30:23;;;;;;;4.90;2.35;;;22.20;36.20;;;;;;5018813;28;20048;-55
2022/04/24 11:32:59;;;;;;;6.10;2.42;;;21.60;37.30;;;;;;4962638;28;20156;-55
2022/04/24 11:35:29;;;;;;;4.47;2.88;;;22.10;37.60;;;;;;4985612;28;20053;-56
2022/04/24 11:37:55;;;;;;;5.05;2.28;;;22.70;37.60;;;;;;5014920;28;20054;-55
2022/04/24 11:40:23;;;;;;;5.10;2.33;;;22.50;37.10;;;;;;5013172;28;20049;-55
2022/04/24 11:42:49;;;;;;;5.15;2.60;;;22.10;37.00;;;;;;4981384;28;20049;-53
2022/04/24 11:50:51;;;;;;;5.15;2.10;;;21.20;38.30;;;;;;5039453;28;20813;-54
2022/04/24 11:53:22;;;;;;;4.53;2.20;;;20.90;38.10;;;;;;5022777;28;20079;-54
2022/04/24 11:56:04;;;;;;;5.93;2.20;;;20.50;38.50;;;;;;5006104;28;20045;-54
2022/04/24 11:58:35;;;;;;;2.55;1.63;;;20.30;38.70;;;;;;5007653;28;20077;-55
2022/04/24 12:01:09;;;;;;;5.90;1.92;;;20.00;38.20;;;;;;5028515;28;20084;-52
2022/04/24 12:03:37;;;;;;;3.00;1.80;;;19.90;38.00;;;;;;5025315;28;20141;-55
2022/04/24 12:06:07;;;;;;;3.85;2.08;;;20.50;37.60;;;;;;5023407;28;20143;-55
2022/04/24 12:08:49;;;;;;;5.68;2.08;;;21.20;37.20;;;;;;5021125;28;20081;-55
2022/04/24 12:11:30;;;;;;;4.72;2.83;;;21.70;35.70;;;;;;5021969;28;20060;-56
2022/04/24 12:14:05;;;;;;;10.75;7.93;;;22.30;37.00;;;;;;5021878;28;20148;-55
2022/04/24 12:16:31;;;;;;;6.55;3.08;;;22.00;37.10;;;;;;5020812;28;20841;-55
2022/04/24 12:18:59;;;;;;;7.75;5.28;;;21.60;37.60;;;;;;5024620;28;20085;-57
2022/04/24 12:21:28;;;;;;;7.80;5.22;;;21.40;38.30;;;;;;5024122;28;20090;-57
2022/04/24 12:23:55;;;;;;;4.13;2.50;;;21.20;38.30;;;;;;4995997;28;20057;-57
2022/04/24 12:26:22;;;;;;;7.60;3.58;;;21.20;38.70;;;;;;5019630;28;20061;-57
2022/04/24 12:28:48;;;;;;;6.68;4.63;;;20.80;39.00;;;;;;5023860;28;20128;-57
2022/04/24 12:31:23;;;;;;;6.43;4.35;;;20.40;39.60;;;;;;5023138;28;20049;-55
2022/04/24 12:33:52;;;;;;;6.22;4.38;;;20.00;39.70;;;;;;4998307;28;20045;-57
2022/04/24 12:36:19;;;;;;;9.73;5.38;;;20.80;39.90;;;;;;5013146;28;20065;-57
2022/04/24 12:39:01;;;;;;;8.20;5.10;;;21.40;39.10;;;;;;5019645;28;20115;-57
2022/04/24 12:41:28;;;;;;;10.02;5.68;;;21.80;38.30;;;;;;5013999;28;20053;-57
2022/04/24 12:43:58;;;;;;;9.18;8.13;;;22.00;37.60;;;;;;5020999;28;20065;-57
2022/04/24 12:46:24;;;;;;;7.82;5.47;;;22.60;37.30;;;;;;5004793;28;20092;-57
2022/04/24 12:48:52;;;;;;;8.40;7.05;;;22.80;36.90;;;;;;5023637;28;20405;-57
2022/04/24 12:51:26;;;;;;;8.90;7.95;;;22.50;35.50;;;;;;5022472;28;20045;-57
2022/04/24 12:53:57;;;;;;;8.05;5.45;;;22.40;35.60;;;;;;5020581;28;20056;-57
2022/04/24 12:56:24;;;;;;;6.20;4.53;;;22.40;35.50;;;;;;5035677;28;20068;-57